Time;durP1;ratioP1;P1;durP2;ratioP2;P2;SDS_P1;SDS_P2;PMS_P1;PMS_P2;Temp;Humidity;BMP_temperature;BMP_pressure;BME280_temperature;BME280_humidity;BME280_pressure;Samples;Min_cycle;Max_cycle;Signal;HPM_P1;HPM_P2
2022/03/18 00:00:17;;;;;;;14.98;6.72;;;3.70;99.90;;;;;;5024817;28;20044;-70
2022/03/18 00:02:42;;;;;;;16.67;6.17;;;3.70;99.90;;;;;;5042100;28;20036;-70
2022/03/18 00:05:08;;;;;;;19.92;5.93;;;3.60;99.90;;;;;;5041533;28;20040;-72
2022/03/18 00:07:34;;;;;;;17.02;5.88;;;3.60;99.90;;;;;;5046722;28;20041;-72
2022/03/18 00:10:00;;;;;;;15.27;6.10;;;3.50;99.90;;;;;;5055498;28;20028;-72
2022/03/18 00:12:26;;;;;;;16.52;5.90;;;3.50;99.90;;;;;;5064697;28;20124;-72
2022/03/18 00:14:51;;;;;;;24.05;6.63;;;3.40;99.90;;;;;;5068169;28;20044;-69
2022/03/18 00:17:17;;;;;;;19.00;5.78;;;3.40;99.90;;;;;;5056265;28;20037;-71
2022/03/18 00:19:43;;;;;;;11.50;5.68;;;3.40;99.90;;;;;;5074442;28;20721;-72
2022/03/18 00:22:10;;;;;;;10.25;5.60;;;3.30;99.90;;;;;;5050426;28;20041;-72
2022/03/18 00:24:35;;;;;;;14.70;6.13;;;3.20;99.90;;;;;;5050216;28;20056;-70
2022/03/18 00:27:06;;;;;;;15.38;5.80;;;3.20;99.90;;;;;;5038127;28;20040;-70
2022/03/18 00:29:33;;;;;;;17.75;6.38;;;3.20;99.90;;;;;;5033707;28;20032;-70
2022/03/18 00:31:59;;;;;;;15.80;6.15;;;3.00;99.90;;;;;;5041264;28;20044;-72
2022/03/18 00:34:25;;;;;;;14.32;6.32;;;3.00;99.90;;;;;;5040578;28;20123;-72
2022/03/18 00:36:52;;;;;;;13.77;6.20;;;3.00;99.90;;;;;;5023906;28;20116;-73
2022/03/18 00:39:18;;;;;;;15.07;6.63;;;3.00;99.90;;;;;;5057706;28;20442;-71
2022/03/18 00:41:43;;;;;;;17.98;7.07;;;3.00;99.90;;;;;;5040944;28;20090;-70
2022/03/18 00:44:09;;;;;;;15.68;6.28;;;3.00;99.90;;;;;;5073182;28;20119;-70
2022/03/18 00:46:35;;;;;;;19.42;7.13;;;3.00;99.90;;;;;;5050226;28;20029;-71
2022/03/18 00:52:04;;;;;;;14.80;6.18;;;3.00;99.90;;;;;;5075208;28;20044;-73
2022/03/18 00:54:34;;;;;;;18.73;6.25;;;2.90;99.90;;;;;;5054595;28;20040;-70
2022/03/18 00:57:00;;;;;;;12.25;5.80;;;2.90;99.90;;;;;;5075459;28;20033;-71
2022/03/18 00:59:26;;;;;;;14.60;6.90;;;2.90;99.90;;;;;;5075460;28;20117;-71
2022/03/18 01:01:52;;;;;;;13.95;5.80;;;2.90;99.90;;;;;;5057437;28;20060;-72
2022/03/18 01:04:19;;;;;;;12.20;5.80;;;2.90;99.90;;;;;;5049499;28;20612;-71
2022/03/18 01:06:45;;;;;;;15.18;6.93;;;2.90;99.90;;;;;;5075518;28;20037;-70
2022/03/18 01:09:11;;;;;;;19.92;7.00;;;2.90;99.90;;;;;;5075600;28;20041;-70
2022/03/18 01:11:37;;;;;;;12.52;6.95;;;2.90;99.90;;;;;;5057609;28;20059;-70
2022/03/18 01:14:02;;;;;;;15.88;6.90;;;2.90;99.90;;;;;;5078688;28;20051;-70
2022/03/18 01:16:28;;;;;;;14.68;7.00;;;3.00;99.90;;;;;;5058962;28;20424;-71
2022/03/18 01:18:54;;;;;;;10.90;5.65;;;2.90;99.90;;;;;;5067538;28;20039;-72
2022/03/18 01:21:19;;;;;;;12.90;6.15;;;3.00;99.90;;;;;;5057530;28;20051;-70
2022/03/18 01:23:46;;;;;;;10.45;5.93;;;2.90;99.90;;;;;;5057305;28;20048;-70
2022/03/18 01:26:11;;;;;;;14.10;7.22;;;2.90;99.90;;;;;;5054572;28;20044;-70
2022/03/18 01:28:37;;;;;;;15.27;6.90;;;2.80;99.90;;;;;;5074675;28;20029;-70
2022/03/18 01:31:03;;;;;;;17.48;6.45;;;2.80;99.90;;;;;;5057686;28;20069;-71
2022/03/18 01:33:29;;;;;;;12.85;6.28;;;2.80;99.90;;;;;;5055720;28;20036;-70
2022/03/18 01:35:54;;;;;;;15.43;7.80;;;2.80;99.90;;;;;;5069514;28;20035;-71
2022/03/18 01:38:20;;;;;;;14.85;7.07;;;2.80;99.90;;;;;;5024059;28;20044;-70
2022/03/18 01:40:45;;;;;;;10.45;5.38;;;2.80;99.90;;;;;;5059899;28;20045;-70
2022/03/18 01:43:11;;;;;;;14.48;6.55;;;2.80;99.90;;;;;;5045622;28;20044;-71
2022/03/18 01:45:38;;;;;;;15.50;6.25;;;2.80;99.90;;;;;;5070095;28;20112;-70
2022/03/18 01:48:05;;;;;;;20.45;7.18;;;2.70;99.90;;;;;;5057504;28;20028;-71
2022/03/18 01:50:31;;;;;;;17.02;6.68;;;2.70;99.90;;;;;;5075314;28;20535;-73
2022/03/18 01:52:57;;;;;;;11.93;6.03;;;2.70;99.90;;;;;;5057135;28;20036;-71
2022/03/18 01:55:24;;;;;;;13.32;6.85;;;2.70;99.90;;;;;;5066880;28;20063;-70
2022/03/18 01:57:50;;;;;;;19.42;7.25;;;2.60;99.90;;;;;;5075290;28;20481;-70
2022/03/18 02:00:19;;;;;;;18.20;7.50;;;2.70;99.90;;;;;;5057710;28;20037;-70
2022/03/18 02:02:46;;;;;;;15.75;7.45;;;2.70;99.90;;;;;;5068642;28;20086;-71
2022/03/18 02:05:13;;;;;;;14.35;7.00;;;2.70;99.90;;;;;;5024406;28;20040;-70
2022/03/18 02:07:38;;;;;;;14.50;7.78;;;2.70;99.90;;;;;;5048775;28;20043;-71
2022/03/18 02:10:06;;;;;;;18.25;7.50;;;2.70;99.90;;;;;;5073874;28;20036;-70
2022/03/18 02:12:31;;;;;;;13.25;6.50;;;2.70;99.90;;;;;;5074647;28;20415;-71
2022/03/18 02:14:57;;;;;;;20.33;8.48;;;2.70;99.90;;;;;;5060277;28;20119;-72
2022/03/18 02:17:23;;;;;;;18.52;8.48;;;2.70;99.90;;;;;;5075716;28;20169;-70
2022/03/18 02:19:49;;;;;;;19.33;8.65;;;2.70;99.90;;;;;;5051362;28;20648;-72
2022/03/18 02:22:18;;;;;;;15.77;8.93;;;2.70;99.90;;;;;;5023803;28;20515;-71
2022/03/18 02:24:45;;;;;;;14.18;8.57;;;2.70;99.90;;;;;;5020882;28;20469;-71
2022/03/18 02:27:11;;;;;;;15.95;8.57;;;2.70;99.90;;;;;;5039078;28;20061;-70
2022/03/18 02:29:38;;;;;;;19.67;9.07;;;2.70;99.90;;;;;;5049070;28;20048;-71
2022/03/18 02:32:05;;;;;;;15.75;7.93;;;2.70;99.90;;;;;;5071532;28;20036;-73
2022/03/18 02:34:31;;;;;;;13.20;7.68;;;2.70;99.90;;;;;;5074668;28;20039;-71
2022/03/18 02:36:57;;;;;;;13.60;7.15;;;2.60;99.90;;;;;;5069762;28;20033;-71
2022/03/18 02:39:23;;;;;;;17.77;7.22;;;2.60;99.90;;;;;;5057956;28;20400;-71
2022/03/18 02:41:49;;;;;;;17.88;7.13;;;2.60;99.90;;;;;;5054606;28;20036;-70
2022/03/18 02:44:15;;;;;;;20.45;8.23;;;2.50;99.90;;;;;;5039286;28;20039;-70
2022/03/18 02:46:40;;;;;;;18.77;8.77;;;2.40;99.90;;;;;;5070800;28;20037;-71
2022/03/18 02:49:07;;;;;;;13.45;7.20;;;2.40;99.90;;;;;;5071953;28;20032;-72
2022/03/18 02:51:36;;;;;;;13.52;7.50;;;2.30;99.90;;;;;;5057205;28;20032;-70
2022/03/18 02:54:02;;;;;;;18.15;8.00;;;2.30;99.90;;;;;;5071940;28;20051;-70
2022/03/18 02:56:27;;;;;;;12.95;7.45;;;2.30;99.90;;;;;;5074616;28;20029;-70
2022/03/18 02:58:53;;;;;;;24.55;9.73;;;2.30;99.90;;;;;;5074641;28;20039;-70
2022/03/18 03:01:19;;;;;;;23.45;10.10;;;2.30;99.90;;;;;;5023412;28;20123;-71
2022/03/18 03:03:45;;;;;;;16.40;9.48;;;2.30;99.90;;;;;;5054572;28;20036;-71
2022/03/18 03:08:55;;;;;;;16.17;8.20;;;2.40;99.90;;;;;;5056515;28;20064;-71
2022/03/18 03:11:23;;;;;;;18.17;9.18;;;2.40;99.90;;;;;;5057115;28;20051;-72
2022/03/18 03:13:50;;;;;;;15.07;7.97;;;2.40;99.90;;;;;;5070726;28;20090;-72
2022/03/18 03:16:16;;;;;;;16.35;7.95;;;2.50;99.90;;;;;;5074366;28;20043;-70
2022/03/18 03:18:42;;;;;;;19.35;8.32;;;2.50;99.90;;;;;;5071267;28;20028;-71
2022/03/18 03:21:07;;;;;;;21.02;8.98;;;2.50;99.90;;;;;;5054939;28;20048;-70
2022/03/18 03:23:33;;;;;;;16.60;9.25;;;2.50;99.90;;;;;;5039357;28;20117;-72
2022/03/18 03:25:58;;;;;;;21.95;9.23;;;2.60;99.90;;;;;;5074075;28;20032;-70
2022/03/18 03:28:24;;;;;;;20.02;8.43;;;2.60;99.90;;;;;;5035697;28;20093;-71
2022/03/18 03:30:50;;;;;;;15.98;8.10;;;2.60;99.90;;;;;;5036969;28;20121;-70
2022/03/18 03:33:16;;;;;;;17.73;7.78;;;2.60;99.90;;;;;;5074668;28;20051;-71
2022/03/18 03:35:42;;;;;;;13.13;8.27;;;2.50;99.90;;;;;;5055617;28;20033;-70
2022/03/18 03:38:14;;;;;;;18.92;8.20;;;2.50;99.90;;;;;;5042936;28;20044;-71
2022/03/18 03:40:40;;;;;;;14.50;8.45;;;2.60;99.90;;;;;;5069678;28;20041;-70
2022/03/18 03:43:08;;;;;;;10.95;6.95;;;2.50;99.90;;;;;;5072766;28;20067;-71
2022/03/18 03:45:37;;;;;;;19.33;7.55;;;2.50;99.90;;;;;;5041719;28;20404;-70
2022/03/18 03:48:04;;;;;;;14.25;7.00;;;2.50;99.90;;;;;;5055121;28;20506;-70
2022/03/18 03:50:31;;;;;;;10.45;6.30;;;2.50;99.90;;;;;;5053961;28;20055;-71
2022/03/18 03:52:56;;;;;;;12.70;7.40;;;2.40;99.90;;;;;;5023879;28;20485;-71
2022/03/18 03:55:22;;;;;;;7.70;5.43;;;2.40;99.90;;;;;;5039436;28;20052;-73
2022/03/18 03:57:47;;;;;;;10.27;6.50;;;2.40;99.90;;;;;;5055651;28;20068;-70
2022/03/18 04:00:14;;;;;;;16.92;8.35;;;2.30;99.90;;;;;;5040977;28;20044;-70
2022/03/18 04:02:40;;;;;;;7.28;4.15;;;2.30;99.90;;;;;;5054637;28;20070;-71
2022/03/18 04:05:07;;;;;;;14.88;6.78;;;2.30;99.90;;;;;;5074687;28;20123;-72
2022/03/18 04:07:37;;;;;;;9.30;6.07;;;2.20;99.90;;;;;;5054753;28;20037;-72
2022/03/18 04:10:04;;;;;;;13.70;7.28;;;2.20;99.90;;;;;;5054904;28;20033;-72
2022/03/18 04:12:32;;;;;;;15.90;7.80;;;2.20;99.90;;;;;;5054825;28;20392;-72
2022/03/18 04:14:59;;;;;;;18.60;8.48;;;2.20;99.90;;;;;;5077884;28;20481;-72
2022/03/18 04:17:26;;;;;;;15.82;7.70;;;2.20;99.90;;;;;;5077916;28;20138;-72
2022/03/18 04:19:53;;;;;;;10.52;5.47;;;2.20;99.90;;;;;;5037806;28;1026970;-72
2022/03/18 04:22:21;;;;;;;13.05;5.88;;;2.10;99.90;;;;;;5044993;28;20532;-72
2022/03/18 04:24:46;;;;;;;15.82;6.55;;;2.00;99.90;;;;;;5056122;28;20362;-72
2022/03/18 04:27:12;;;;;;;13.55;6.03;;;1.90;99.90;;;;;;5075866;28;20104;-72
2022/03/18 04:29:37;;;;;;;15.38;6.85;;;1.90;99.90;;;;;;5042811;28;20044;-72
2022/03/18 04:32:03;;;;;;;12.82;7.30;;;1.90;99.90;;;;;;5039556;28;20101;-71
2022/03/18 04:34:29;;;;;;;14.50;7.70;;;2.00;99.90;;;;;;5057185;28;20515;-72
2022/03/18 04:36:55;;;;;;;13.68;8.07;;;2.00;99.90;;;;;;5058829;28;20485;-73
2022/03/18 04:39:20;;;;;;;17.23;7.90;;;2.00;99.90;;;;;;5052272;28;20416;-72
2022/03/18 04:41:46;;;;;;;16.63;8.13;;;2.00;99.90;;;;;;5070982;28;20037;-72
2022/03/18 04:44:12;;;;;;;19.27;8.52;;;2.00;99.90;;;;;;5056089;28;20032;-73
2022/03/18 04:46:37;;;;;;;18.52;9.05;;;2.00;99.90;;;;;;5053337;28;20040;-70
2022/03/18 04:49:03;;;;;;;17.02;8.30;;;2.10;99.90;;;;;;5055481;28;20050;-71
2022/03/18 04:51:30;;;;;;;14.10;8.02;;;2.00;99.90;;;;;;5050244;28;20140;-71
2022/03/18 04:53:57;;;;;;;15.02;7.57;;;2.00;99.90;;;;;;5056023;28;20036;-71
2022/03/18 04:59:06;;;;;;;12.55;6.53;;;2.00;99.90;;;;;;5050986;28;20049;-73
2022/03/18 05:01:32;;;;;;;11.02;5.68;;;2.00;99.90;;;;;;5055553;28;20040;-72
2022/03/18 05:03:58;;;;;;;13.70;6.32;;;2.00;99.90;;;;;;5052116;28;20115;-72
2022/03/18 05:06:25;;;;;;;15.70;6.40;;;1.90;99.90;;;;;;5055821;28;20036;-70
2022/03/18 05:08:51;;;;;;;15.98;6.32;;;1.80;99.90;;;;;;5055793;28;20075;-72
2022/03/18 05:11:16;;;;;;;12.35;6.30;;;1.80;99.90;;;;;;5049301;28;20518;-72
2022/03/18 05:13:42;;;;;;;14.20;6.28;;;1.80;99.90;;;;;;5051817;28;20033;-72
2022/03/18 05:16:08;;;;;;;14.55;6.85;;;1.70;99.90;;;;;;5072041;28;20374;-72
2022/03/18 05:18:33;;;;;;;15.63;7.32;;;1.70;99.90;;;;;;5055661;28;20040;-72
2022/03/18 05:20:59;;;;;;;10.05;6.78;;;1.70;99.90;;;;;;5055231;28;20089;-72
2022/03/18 05:23:24;;;;;;;13.68;6.82;;;1.70;99.90;;;;;;5038507;28;20037;-72
2022/03/18 05:25:50;;;;;;;16.35;7.00;;;1.70;99.90;;;;;;5055360;28;20044;-70
2022/03/18 05:28:17;;;;;;;10.00;6.55;;;1.70;99.90;;;;;;5055245;28;20047;-72
2022/03/18 05:30:43;;;;;;;9.98;6.38;;;1.70;99.90;;;;;;5050943;28;20040;-72
2022/03/18 05:33:09;;;;;;;15.20;6.85;;;1.60;99.90;;;;;;5056843;28;20393;-72
2022/03/18 05:35:35;;;;;;;6.55;5.20;;;1.60;99.90;;;;;;5055446;28;20037;-72
2022/03/18 05:38:00;;;;;;;8.80;5.57;;;1.60;99.90;;;;;;5055242;28;20048;-70
2022/03/18 05:40:26;;;;;;;9.57;6.32;;;1.60;99.90;;;;;;5059071;28;20040;-72
2022/03/18 05:42:52;;;;;;;13.20;7.15;;;1.60;99.90;;;;;;5056404;28;20072;-72
2022/03/18 05:45:18;;;;;;;10.60;6.10;;;1.60;99.90;;;;;;5053645;28;20043;-72
2022/03/18 05:47:44;;;;;;;11.85;7.18;;;1.60;99.90;;;;;;5055598;28;20079;-72
2022/03/18 05:50:15;;;;;;;18.33;8.25;;;1.60;99.90;;;;;;5072839;28;20473;-72
2022/03/18 05:52:40;;;;;;;16.42;8.65;;;1.50;99.90;;;;;;5054363;28;20378;-72
2022/03/18 05:55:06;;;;;;;16.75;7.72;;;1.50;99.90;;;;;;5072751;28;20120;-72
2022/03/18 05:57:32;;;;;;;14.70;8.00;;;1.50;99.90;;;;;;5058853;28;20051;-72
2022/03/18 05:59:59;;;;;;;16.27;7.80;;;1.50;99.90;;;;;;5054216;28;20045;-72
2022/03/18 06:02:25;;;;;;;10.02;6.55;;;1.50;99.90;;;;;;5059335;28;20090;-72
2022/03/18 06:04:51;;;;;;;11.48;6.78;;;1.60;99.90;;;;;;5055616;28;20050;-72
2022/03/18 06:07:17;;;;;;;11.60;6.97;;;1.50;99.90;;;;;;5050550;28;20548;-72
2022/03/18 06:12:28;;;;;;;12.02;7.35;;;1.50;99.90;;;;;;5066658;28;20143;-72
2022/03/18 06:14:54;;;;;;;12.00;7.45;;;1.60;99.90;;;;;;5060490;28;20039;-72
2022/03/18 06:17:20;;;;;;;16.35;7.03;;;1.60;99.90;;;;;;5054558;28;20063;-72
2022/03/18 06:19:45;;;;;;;12.25;8.07;;;1.60;99.90;;;;;;5054497;28;20076;-72
2022/03/18 06:22:11;;;;;;;13.30;8.10;;;1.70;99.90;;;;;;5052571;28;20083;-72
2022/03/18 06:24:37;;;;;;;11.75;7.45;;;1.70;99.90;;;;;;5053584;28;20090;-72
2022/03/18 06:27:04;;;;;;;10.48;6.63;;;1.70;99.90;;;;;;5067702;28;20040;-71
2022/03/18 06:29:31;;;;;;;11.98;6.85;;;1.70;99.90;;;;;;5054261;28;20481;-72
2022/03/18 06:31:59;;;;;;;12.50;7.05;;;1.70;99.90;;;;;;5055593;28;20040;-72
2022/03/18 06:34:25;;;;;;;11.68;6.85;;;1.70;99.90;;;;;;5071989;28;20032;-71
2022/03/18 06:36:52;;;;;;;14.02;8.40;;;1.80;99.90;;;;;;5017078;28;20271;-71
2022/03/18 06:39:19;;;;;;;11.25;8.38;;;1.80;99.90;;;;;;5046389;28;20040;-72
2022/03/18 06:41:46;;;;;;;10.88;7.75;;;1.80;99.90;;;;;;5049377;28;20052;-71
2022/03/18 06:44:12;;;;;;;15.32;7.55;;;1.80;99.90;;;;;;5031179;28;20040;-72
2022/03/18 06:46:38;;;;;;;12.05;7.82;;;1.80;99.90;;;;;;5066442;28;20036;-71
2022/03/18 06:49:05;;;;;;;13.82;7.80;;;1.90;99.90;;;;;;5049519;28;20485;-70
2022/03/18 06:51:31;;;;;;;9.88;7.35;;;1.90;99.90;;;;;;5031841;28;20045;-72
2022/03/18 06:53:57;;;;;;;13.98;8.88;;;2.00;99.90;;;;;;5045963;28;20489;-71
2022/03/18 06:56:23;;;;;;;15.40;9.25;;;2.00;99.90;;;;;;5067070;28;20036;-71
2022/03/18 06:58:49;;;;;;;14.93;10.05;;;2.10;99.90;;;;;;5071231;28;20036;-72
2022/03/18 07:01:14;;;;;;;20.55;11.15;;;2.20;99.90;;;;;;5054225;28;20040;-71
2022/03/18 07:03:40;;;;;;;22.52;11.77;;;2.20;99.90;;;;;;5035574;28;20040;-73
2022/03/18 07:06:06;;;;;;;19.00;10.93;;;2.30;99.90;;;;;;5050112;28;20048;-71
2022/03/18 07:08:33;;;;;;;20.92;10.38;;;2.30;99.90;;;;;;5048629;28;20048;-70
2022/03/18 07:10:59;;;;;;;21.42;11.70;;;2.40;99.90;;;;;;5050163;28;20024;-71
2022/03/18 07:13:25;;;;;;;27.10;14.77;;;2.40;99.90;;;;;;5068270;28;20056;-70
2022/03/18 07:15:51;;;;;;;30.33;15.90;;;2.50;99.90;;;;;;5046097;28;20049;-68
2022/03/18 07:18:16;;;;;;;23.65;15.23;;;2.60;99.90;;;;;;5048621;28;20035;-71
2022/03/18 07:20:42;;;;;;;26.42;14.95;;;2.70;99.90;;;;;;5049032;28;20051;-70
2022/03/18 07:23:10;;;;;;;23.38;14.88;;;2.80;99.90;;;;;;5050637;28;20091;-72
2022/03/18 07:25:38;;;;;;;29.02;16.00;;;2.90;99.90;;;;;;5047216;28;20041;-71
2022/03/18 07:28:04;;;;;;;31.80;18.23;;;3.00;99.90;;;;;;5047899;28;20036;-71
2022/03/18 07:30:31;;;;;;;30.05;19.50;;;3.20;99.90;;;;;;5052200;28;20029;-70
2022/03/18 07:32:56;;;;;;;33.50;21.30;;;3.30;99.90;;;;;;5049883;28;20051;-70
2022/03/18 07:35:22;;;;;;;35.50;20.60;;;3.40;99.90;;;;;;5038153;28;20040;-70
2022/03/18 07:37:49;;;;;;;30.73;19.90;;;3.50;99.90;;;;;;5022514;28;20043;-71
2022/03/18 07:40:17;;;;;;;36.75;20.08;;;3.70;99.90;;;;;;5051733;28;20101;-71
2022/03/18 07:42:44;;;;;;;30.90;20.45;;;3.90;99.90;;;;;;5065431;28;20499;-71
2022/03/18 07:45:11;;;;;;;35.25;20.08;;;4.00;99.90;;;;;;5050342;28;20037;-71
2022/03/18 07:47:37;;;;;;;30.75;19.80;;;4.10;99.90;;;;;;5047884;28;20032;-71
2022/03/18 07:50:03;;;;;;;30.20;18.65;;;4.30;99.90;;;;;;5050660;28;20059;-71
2022/03/18 07:52:28;;;;;;;30.77;17.92;;;4.40;99.90;;;;;;5046316;28;20051;-71
2022/03/18 07:54:54;;;;;;;30.52;20.75;;;4.60;99.90;;;;;;5049347;28;20060;-71
2022/03/18 07:57:20;;;;;;;33.75;19.80;;;4.70;99.90;;;;;;5066778;28;20698;-71
2022/03/18 07:59:45;;;;;;;31.23;19.70;;;4.80;99.90;;;;;;5049946;28;20036;-71
2022/03/18 08:02:11;;;;;;;28.17;19.35;;;5.00;99.90;;;;;;5050063;28;20052;-70
2022/03/18 08:04:36;;;;;;;31.90;18.48;;;5.10;99.90;;;;;;5068695;28;20037;-71
2022/03/18 08:07:03;;;;;;;30.02;19.25;;;5.20;99.90;;;;;;5035998;28;20087;-72
2022/03/18 08:09:29;;;;;;;25.58;18.48;;;5.30;99.90;;;;;;5050113;28;20119;-71
2022/03/18 08:11:56;;;;;;;33.40;19.23;;;5.50;99.90;;;;;;5055635;28;20060;-70
2022/03/18 08:14:22;;;;;;;32.00;19.17;;;5.60;99.90;;;;;;5055928;28;20037;-71
2022/03/18 08:16:48;;;;;;;26.48;17.67;;;5.70;99.90;;;;;;5051582;28;20038;-71
2022/03/18 08:19:14;;;;;;;30.83;18.33;;;5.80;99.90;;;;;;5052681;28;20385;-71
2022/03/18 08:21:40;;;;;;;28.33;18.60;;;5.90;99.90;;;;;;5069463;28;20039;-71
2022/03/18 08:24:06;;;;;;;25.25;18.33;;;6.00;99.90;;;;;;5040880;28;20049;-72
2022/03/18 08:26:36;;;;;;;26.55;17.30;;;6.20;99.90;;;;;;5061660;28;20033;-72
2022/03/18 08:29:03;;;;;;;28.27;17.73;;;6.40;99.90;;;;;;5065559;28;20189;-72
2022/03/18 08:31:30;;;;;;;27.80;17.10;;;6.50;99.90;;;;;;5066828;28;20037;-71
2022/03/18 08:33:56;;;;;;;27.08;17.70;;;6.60;99.90;;;;;;5065005;28;20048;-72
2022/03/18 08:36:22;;;;;;;26.90;17.13;;;6.70;99.90;;;;;;5048407;28;20043;-71
2022/03/18 08:38:48;;;;;;;29.70;17.75;;;6.80;99.90;;;;;;5047755;28;20032;-71
2022/03/18 08:41:14;;;;;;;27.52;18.58;;;7.00;99.90;;;;;;5051459;28;20064;-71
2022/03/18 08:43:40;;;;;;;26.98;16.27;;;7.10;99.90;;;;;;5050425;28;20115;-71
2022/03/18 08:46:05;;;;;;;24.58;15.90;;;7.30;99.90;;;;;;5052521;28;20044;-71
2022/03/18 08:48:31;;;;;;;26.45;15.93;;;7.40;99.90;;;;;;5053357;28;20060;-72
2022/03/18 08:50:57;;;;;;;27.58;15.27;;;7.50;99.90;;;;;;5071404;28;20171;-72
2022/03/18 08:53:23;;;;;;;26.20;16.20;;;7.70;99.90;;;;;;5070870;28;20044;-72
2022/03/18 08:55:48;;;;;;;26.50;16.48;;;7.90;99.90;;;;;;5050053;28;20143;-71
2022/03/18 08:58:14;;;;;;;25.02;14.90;;;8.00;99.90;;;;;;5053056;28;20067;-71
2022/03/18 09:00:40;;;;;;;27.10;15.65;;;8.10;99.90;;;;;;5053275;28;20040;-72
2022/03/18 09:03:06;;;;;;;25.80;14.15;;;8.30;99.90;;;;;;5052029;28;20053;-72
2022/03/18 09:05:32;;;;;;;22.70;14.02;;;8.40;99.90;;;;;;5054941;28;20036;-72
2022/03/18 09:07:57;;;;;;;27.05;14.05;;;8.60;99.90;;;;;;5052087;28;20028;-73
2022/03/18 09:10:24;;;;;;;26.05;15.18;;;8.70;99.90;;;;;;5049698;28;20049;-72
2022/03/18 09:12:59;;;;;;;23.83;14.73;;;8.80;99.90;;;;;;5053109;28;20056;-72
2022/03/18 09:15:29;;;;;;;28.45;14.85;;;9.00;99.90;;;;;;5055852;28;20041;-72
2022/03/18 09:17:55;;;;;;;28.65;14.05;;;9.10;99.90;;;;;;5033355;28;20049;-74
2022/03/18 09:20:21;;;;;;;26.77;14.23;;;9.20;99.90;;;;;;5037781;28;20059;-72
2022/03/18 09:22:47;;;;;;;25.60;13.70;;;9.30;99.90;;;;;;5068973;28;20093;-72
2022/03/18 09:25:14;;;;;;;28.40;13.20;;;9.40;99.90;;;;;;5065254;28;20044;-71
2022/03/18 09:27:40;;;;;;;25.05;13.65;;;9.50;99.90;;;;;;5069962;28;20040;-71
2022/03/18 09:30:11;;;;;;;24.83;13.35;;;9.70;99.90;;;;;;5039758;28;20040;-71
2022/03/18 09:32:40;;;;;;;21.77;12.20;;;9.80;99.90;;;;;;5044285;28;20044;-71
2022/03/18 09:35:10;;;;;;;28.50;12.95;;;9.90;99.90;;;;;;5054669;28;20045;-71
2022/03/18 09:37:36;;;;;;;19.02;12.65;;;10.00;99.90;;;;;;5049248;28;20050;-71
2022/03/18 09:40:04;;;;;;;25.02;13.23;;;10.10;99.90;;;;;;5054615;28;20048;-70
2022/03/18 09:42:32;;;;;;;25.80;15.10;;;10.20;99.90;;;;;;5047253;28;20132;-73
2022/03/18 09:44:58;;;;;;;23.90;13.85;;;10.40;99.90;;;;;;5046654;28;21056;-71
2022/03/18 09:47:24;;;;;;;21.77;12.40;;;10.50;99.90;;;;;;5052532;28;20122;-72
2022/03/18 09:49:50;;;;;;;26.08;13.18;;;10.60;99.90;;;;;;5054501;28;20028;-72
2022/03/18 09:52:15;;;;;;;18.00;11.88;;;10.70;99.90;;;;;;5072308;28;20048;-72
2022/03/18 09:54:41;;;;;;;22.52;11.68;;;10.90;99.90;;;;;;5053403;28;20044;-72
2022/03/18 09:57:07;;;;;;;20.80;11.80;;;11.00;99.90;;;;;;5049756;28;20041;-71
2022/03/18 09:59:33;;;;;;;21.02;11.05;;;11.10;99.90;;;;;;5049149;28;20048;-72
2022/03/18 10:02:23;;;;;;;22.85;12.07;;;11.30;99.90;;;;;;5055105;28;20033;-70
2022/03/18 10:05:06;;;;;;;22.33;11.55;;;11.30;99.90;;;;;;5065361;28;20032;-71
2022/03/18 10:07:32;;;;;;;21.38;11.40;;;11.50;99.90;;;;;;5042691;28;20162;-70
2022/03/18 10:10:11;;;;;;;16.73;10.98;;;11.60;99.90;;;;;;5038252;28;20377;-71
2022/03/18 10:12:38;;;;;;;19.70;11.38;;;11.70;99.90;;;;;;5019023;28;20051;-69
2022/03/18 10:15:09;;;;;;;18.65;11.40;;;11.90;99.90;;;;;;5032473;28;20053;-69
2022/03/18 10:17:51;;;;;;;21.42;10.98;;;12.00;99.90;;;;;;5051564;28;20035;-70
2022/03/18 10:20:24;;;;;;;23.10;10.60;;;12.10;99.90;;;;;;5048261;28;20036;-69
2022/03/18 10:22:51;;;;;;;18.17;10.10;;;12.20;99.90;;;;;;5019902;28;20037;-71
2022/03/18 10:25:41;;;;;;;20.48;10.48;;;12.40;99.90;;;;;;5051962;28;20968;-72
2022/03/18 10:28:09;;;;;;;16.75;10.00;;;12.60;99.90;;;;;;5053284;28;20040;-71
2022/03/18 10:30:35;;;;;;;24.38;11.13;;;12.70;99.90;;;;;;5053989;28;20040;-71
2022/03/18 10:33:02;;;;;;;20.35;9.70;;;12.80;99.90;;;;;;5051477;28;20401;-72
2022/03/18 10:38:33;;;;;;;18.38;9.77;;;13.10;99.90;;;;;;5047014;28;21872;-72
2022/03/18 10:41:05;;;;;;;21.63;9.75;;;13.30;99.90;;;;;;5049340;28;20044;-71
2022/03/18 10:43:52;;;;;;;19.50;9.48;;;13.50;99.90;;;;;;5046390;28;20036;-72
2022/03/18 10:46:18;;;;;;;18.30;9.50;;;13.70;99.90;;;;;;5049855;28;20060;-68
2022/03/18 10:49:04;;;;;;;17.48;10.55;;;13.90;99.90;;;;;;5069041;28;20428;-72
2022/03/18 10:51:30;;;;;;;16.48;9.43;;;14.10;99.90;;;;;;5051860;28;20047;-72
2022/03/18 10:53:57;;;;;;;19.63;9.57;;;14.20;99.90;;;;;;5052887;28;20068;-71
2022/03/18 10:56:24;;;;;;;15.30;9.40;;;14.30;99.90;;;;;;5054363;28;20041;-72
2022/03/18 10:58:49;;;;;;;19.48;9.10;;;14.50;99.90;;;;;;5054090;28;20075;-71
2022/03/18 11:01:16;;;;;;;16.38;9.25;;;14.70;99.90;;;;;;5053541;28;20068;-72
2022/03/18 11:03:45;;;;;;;19.50;8.95;;;14.80;99.90;;;;;;5056896;28;20035;-71
2022/03/18 11:06:11;;;;;;;17.80;8.50;;;14.90;99.90;;;;;;5053221;28;20048;-72
2022/03/18 11:08:50;;;;;;;18.85;8.55;;;15.10;99.90;;;;;;5058081;28;20036;-72
2022/03/18 11:11:18;;;;;;;17.33;8.45;;;15.20;99.90;;;;;;5042959;28;20036;-71
2022/03/18 11:14:06;;;;;;;16.20;7.78;;;15.50;99.90;;;;;;5052743;28;20046;-72
2022/03/18 11:16:35;;;;;;;16.27;7.93;;;15.70;99.90;;;;;;5050626;28;20024;-72
2022/03/18 11:19:05;;;;;;;16.98;7.72;;;15.90;99.90;;;;;;5053620;28;20075;-72
2022/03/18 11:21:40;;;;;;;14.48;7.15;;;16.10;97.60;;;;;;5070070;28;20032;-72
2022/03/18 11:24:09;;;;;;;12.95;7.22;;;16.30;97.80;;;;;;5052151;28;20039;-72
2022/03/18 11:26:36;;;;;;;15.40;7.20;;;16.50;95.90;;;;;;5051515;28;20032;-72
2022/03/18 11:29:19;;;;;;;14.73;6.43;;;16.60;94.80;;;;;;5053185;28;20523;-71
2022/03/18 11:32:17;;;;;;;15.63;5.90;;;16.80;91.10;;;;;;5047830;28;20090;-72
2022/03/18 11:34:58;;;;;;;13.00;6.13;;;17.10;90.60;;;;;;5057325;28;20451;-72
2022/03/18 11:37:26;;;;;;;11.93;6.30;;;17.20;84.50;;;;;;5044646;28;20040;-71
2022/03/18 11:40:23;;;;;;;13.73;6.65;;;17.00;82.20;;;;;;5047228;28;20044;-71
2022/03/18 11:42:49;;;;;;;16.20;6.45;;;17.00;81.50;;;;;;5045489;28;20818;-71
2022/03/18 11:45:37;;;;;;;18.75;6.90;;;17.10;82.50;;;;;;5043896;28;20040;-71
2022/03/18 11:48:35;;;;;;;16.77;6.97;;;17.30;86.90;;;;;;5067497;28;20516;-71
2022/03/18 11:51:42;;;;;;;17.48;7.00;;;17.50;85.60;;;;;;5066646;28;20540;-71
2022/03/18 11:54:10;;;;;;;13.60;6.07;;;17.70;82.70;;;;;;5050361;28;20083;-70
2022/03/18 11:56:39;;;;;;;12.10;5.63;;;17.90;82.90;;;;;;5016708;28;20048;-71
2022/03/18 11:59:38;;;;;;;13.35;5.75;;;18.10;78.30;;;;;;5038106;28;20051;-70
2022/03/18 12:02:09;;;;;;;10.90;5.28;;;18.40;79.60;;;;;;5051717;28;20550;-70
2022/03/18 12:04:40;;;;;;;12.18;5.32;;;18.60;78.30;;;;;;5054618;28;20036;-71
2022/03/18 12:07:28;;;;;;;12.88;5.53;;;18.80;75.10;;;;;;5056177;28;20054;-70
2022/03/18 12:09:55;;;;;;;9.27;4.80;;;19.00;71.90;;;;;;5056308;28;20036;-71
2022/03/18 12:12:22;;;;;;;10.05;4.10;;;19.30;71.60;;;;;;5049644;28;20509;-72
2022/03/18 12:14:49;;;;;;;12.65;5.10;;;19.40;68.60;;;;;;5052146;28;20040;-72
2022/03/18 12:17:15;;;;;;;13.75;5.00;;;19.30;66.40;;;;;;5064678;28;20121;-72
2022/03/18 12:19:52;;;;;;;9.80;4.63;;;19.10;64.90;;;;;;5033285;28;20441;-72
2022/03/18 12:22:19;;;;;;;9.93;4.75;;;18.90;65.30;;;;;;5050879;28;20128;-72
2022/03/18 12:24:48;;;;;;;13.07;5.20;;;18.70;66.00;;;;;;5055535;28;20079;-72
2022/03/18 12:27:16;;;;;;;11.73;5.03;;;18.70;63.90;;;;;;5050128;28;20098;-72
2022/03/18 12:29:41;;;;;;;13.00;5.90;;;18.60;64.00;;;;;;5070847;28;20078;-71
2022/03/18 12:32:09;;;;;;;12.23;5.25;;;18.20;66.10;;;;;;5058518;28;20094;-71
2022/03/18 12:34:56;;;;;;;14.45;5.72;;;17.90;65.70;;;;;;5051195;28;20043;-72
2022/03/18 12:37:24;;;;;;;12.40;5.20;;;17.40;64.70;;;;;;5038810;28;20036;-72
2022/03/18 12:40:00;;;;;;;16.83;5.38;;;16.90;67.00;;;;;;5037971;28;20090;-70
2022/03/18 12:42:26;;;;;;;15.90;5.60;;;16.80;70.30;;;;;;5044572;28;20475;-72
2022/03/18 12:44:57;;;;;;;12.77;5.60;;;16.80;71.10;;;;;;5056176;28;20060;-72
2022/03/18 12:47:26;;;;;;;14.23;5.43;;;16.70;72.80;;;;;;5045473;28;20032;-71
2022/03/18 12:49:51;;;;;;;14.32;5.28;;;16.60;72.90;;;;;;5068090;28;20477;-71
2022/03/18 12:52:19;;;;;;;13.63;5.18;;;16.50;75.20;;;;;;5070261;28;20085;-72
2022/03/18 12:55:05;;;;;;;12.88;4.43;;;16.40;74.50;;;;;;5053882;28;20044;-72
2022/03/18 12:57:38;;;;;;;8.93;3.97;;;16.30;73.50;;;;;;5062036;28;20037;-72